sensor_id;sensor_type;location;lat;lon;timestamp;P1;durP1;ratioP1;P2;durP2;ratioP2
7215;SDS011;3649;48.798;9.798;2023-02-28T00:00:34;4.47;;;3.50;;
7215;SDS011;3649;48.798;9.798;2023-02-28T00:03:01;3.47;;;3.17;;
7215;SDS011;3649;48.798;9.798;2023-02-28T00:05:29;3.87;;;3.30;;
7215;SDS011;3649;48.798;9.798;2023-02-28T00:07:56;4.10;;;3.73;;
7215;SDS011;3649;48.798;9.798;2023-02-28T00:10:26;6.40;;;3.30;;
7215;SDS011;3649;48.798;9.798;2023-02-28T00:12:56;5.80;;;3.43;;
7215;SDS011;3649;48.798;9.798;2023-02-28T00:15:26;3.63;;;3.33;;
7215;SDS011;3649;48.798;9.798;2023-02-28T00:17:53;3.13;;;2.90;;
7215;SDS011;3649;48.798;9.798;2023-02-28T00:20:20;4.23;;;3.20;;
7215;SDS011;3649;48.798;9.798;2023-02-28T00:22:48;4.87;;;3.10;;
7215;SDS011;3649;48.798;9.798;2023-02-28T00:25:18;3.80;;;3.40;;
7215;SDS011;3649;48.798;9.798;2023-02-28T00:27:47;5.37;;;2.87;;
7215;SDS011;3649;48.798;9.798;2023-02-28T00:30:16;3.23;;;2.93;;
7215;SDS011;3649;48.798;9.798;2023-02-28T00:32:44;4.13;;;3.60;;
7215;SDS011;3649;48.798;9.798;2023-02-28T00:35:11;3.23;;;2.50;;
7215;SDS011;3649;48.798;9.798;2023-02-28T00:37:38;3.33;;;3.00;;
7215;SDS011;3649;48.798;9.798;2023-02-28T00:40:06;5.53;;;3.60;;
7215;SDS011;3649;48.798;9.798;2023-02-28T00:42:34;3.67;;;3.33;;
7215;SDS011;3649;48.798;9.798;2023-02-28T00:45:01;3.37;;;3.07;;
7215;SDS011;3649;48.798;9.798;2023-02-28T00:47:30;4.57;;;4.17;;
7215;SDS011;3649;48.798;9.798;2023-02-28T00:49:59;3.93;;;3.53;;
7215;SDS011;3649;48.798;9.798;2023-02-28T00:52:27;4.27;;;3.83;;
7215;SDS011;3649;48.798;9.798;2023-02-28T00:54:53;4.07;;;3.50;;
7215;SDS011;3649;48.798;9.798;2023-02-28T00:57:20;4.03;;;3.60;;
7215;SDS011;3649;48.798;9.798;2023-02-28T00:59:47;4.10;;;3.70;;
7215;SDS011;3649;48.798;9.798;2023-02-28T01:02:14;4.57;;;3.37;;
7215;SDS011;3649;48.798;9.798;2023-02-28T01:04:41;3.67;;;3.33;;
7215;SDS011;3649;48.798;9.798;2023-02-28T01:07:08;3.93;;;3.57;;
7215;SDS011;3649;48.798;9.798;2023-02-28T01:09:35;4.80;;;3.93;;
7215;SDS011;3649;48.798;9.798;2023-02-28T01:12:02;4.27;;;3.87;;
7215;SDS011;3649;48.798;9.798;2023-02-28T01:14:29;3.90;;;3.43;;
7215;SDS011;3649;48.798;9.798;2023-02-28T01:16:56;4.43;;;3.67;;
7215;SDS011;3649;48.798;9.798;2023-02-28T01:19:23;5.50;;;4.03;;
7215;SDS011;3649;48.798;9.798;2023-02-28T01:21:49;3.93;;;3.50;;
7215;SDS011;3649;48.798;9.798;2023-02-28T01:24:16;4.87;;;3.50;;
7215;SDS011;3649;48.798;9.798;2023-02-28T01:26:43;3.77;;;3.47;;
7215;SDS011;3649;48.798;9.798;2023-02-28T01:29:10;5.30;;;4.20;;
7215;SDS011;3649;48.798;9.798;2023-02-28T01:31:36;5.67;;;3.80;;
7215;SDS011;3649;48.798;9.798;2023-02-28T01:34:03;3.50;;;3.20;;
7215;SDS011;3649;48.798;9.798;2023-02-28T01:36:30;3.80;;;3.43;;
7215;SDS011;3649;48.798;9.798;2023-02-28T01:38:57;3.83;;;3.50;;
7215;SDS011;3649;48.798;9.798;2023-02-28T01:41:26;4.03;;;3.67;;
7215;SDS011;3649;48.798;9.798;2023-02-28T01:43:57;4.93;;;3.90;;
7215;SDS011;3649;48.798;9.798;2023-02-28T01:46:30;3.97;;;3.57;;
7215;SDS011;3649;48.798;9.798;2023-02-28T01:54:14;3.70;;;3.40;;
7215;SDS011;3649;48.798;9.798;2023-02-28T01:56:48;8.67;;;3.90;;
7215;SDS011;3649;48.798;9.798;2023-02-28T01:59:33;3.73;;;3.43;;
7215;SDS011;3649;48.798;9.798;2023-02-28T02:02:13;3.87;;;3.53;;
7215;SDS011;3649;48.798;9.798;2023-02-28T02:04:49;4.30;;;3.87;;
7215;SDS011;3649;48.798;9.798;2023-02-28T02:07:22;3.93;;;3.53;;
7215;SDS011;3649;48.798;9.798;2023-02-28T02:09:58;4.97;;;4.07;;
7215;SDS011;3649;48.798;9.798;2023-02-28T02:18:18;4.33;;;3.93;;
7215;SDS011;3649;48.798;9.798;2023-02-28T02:23:32;5.07;;;4.20;;
7215;SDS011;3649;48.798;9.798;2023-02-28T02:29:14;4.77;;;4.33;;
7215;SDS011;3649;48.798;9.798;2023-02-28T02:32:10;4.40;;;3.73;;
7215;SDS011;3649;48.798;9.798;2023-02-28T02:41:20;4.00;;;3.70;;
7215;SDS011;3649;48.798;9.798;2023-02-28T02:43:57;4.40;;;4.00;;
7215;SDS011;3649;48.798;9.798;2023-02-28T02:46:32;4.00;;;3.60;;
7215;SDS011;3649;48.798;9.798;2023-02-28T02:49:15;5.83;;;3.80;;
7215;SDS011;3649;48.798;9.798;2023-02-28T02:51:47;4.50;;;4.13;;
7215;SDS011;3649;48.798;9.798;2023-02-28T02:54:22;4.10;;;3.70;;
7215;SDS011;3649;48.798;9.798;2023-02-28T02:56:55;3.97;;;3.57;;
7215;SDS011;3649;48.798;9.798;2023-02-28T02:59:24;5.07;;;4.30;;
7215;SDS011;3649;48.798;9.798;2023-02-28T03:01:55;4.90;;;4.20;;
7215;SDS011;3649;48.798;9.798;2023-02-28T03:04:26;4.77;;;4.23;;
7215;SDS011;3649;48.798;9.798;2023-02-28T03:06:58;4.13;;;3.80;;
7215;SDS011;3649;48.798;9.798;2023-02-28T03:09:25;4.27;;;3.83;;
7215;SDS011;3649;48.798;9.798;2023-02-28T03:11:53;4.70;;;4.30;;
7215;SDS011;3649;48.798;9.798;2023-02-28T03:14:28;5.67;;;4.20;;
7215;SDS011;3649;48.798;9.798;2023-02-28T03:19:47;4.27;;;3.87;;
7215;SDS011;3649;48.798;9.798;2023-02-28T03:27:46;5.23;;;4.50;;
7215;SDS011;3649;48.798;9.798;2023-02-28T03:30:44;8.80;;;4.50;;
7215;SDS011;3649;48.798;9.798;2023-02-28T03:33:14;4.83;;;4.43;;
7215;SDS011;3649;48.798;9.798;2023-02-28T03:35:47;4.90;;;4.30;;
7215;SDS011;3649;48.798;9.798;2023-02-28T03:38:20;4.50;;;4.10;;
7215;SDS011;3649;48.798;9.798;2023-02-28T03:41:14;5.43;;;4.93;;
7215;SDS011;3649;48.798;9.798;2023-02-28T03:46:56;4.97;;;4.47;;
7215;SDS011;3649;48.798;9.798;2023-02-28T03:49:27;4.30;;;3.90;;
7215;SDS011;3649;48.798;9.798;2023-02-28T03:51:58;6.57;;;5.03;;
7215;SDS011;3649;48.798;9.798;2023-02-28T03:54:30;5.10;;;4.60;;
7215;SDS011;3649;48.798;9.798;2023-02-28T03:59:36;4.50;;;4.10;;
7215;SDS011;3649;48.798;9.798;2023-02-28T04:02:09;4.40;;;4.10;;
7215;SDS011;3649;48.798;9.798;2023-02-28T04:04:37;5.27;;;4.77;;
7215;SDS011;3649;48.798;9.798;2023-02-28T04:07:05;6.97;;;4.90;;
7215;SDS011;3649;48.798;9.798;2023-02-28T04:09:33;5.40;;;4.90;;
7215;SDS011;3649;48.798;9.798;2023-02-28T04:12:00;5.00;;;4.60;;
7215;SDS011;3649;48.798;9.798;2023-02-28T04:14:27;8.43;;;4.73;;
7215;SDS011;3649;48.798;9.798;2023-02-28T04:16:53;5.60;;;4.53;;
7215;SDS011;3649;48.798;9.798;2023-02-28T04:19:20;4.83;;;4.13;;
7215;SDS011;3649;48.798;9.798;2023-02-28T04:21:48;5.13;;;4.70;;
7215;SDS011;3649;48.798;9.798;2023-02-28T04:24:18;5.07;;;4.63;;
7215;SDS011;3649;48.798;9.798;2023-02-28T04:26:47;5.20;;;4.70;;
7215;SDS011;3649;48.798;9.798;2023-02-28T04:29:20;5.30;;;4.87;;
7215;SDS011;3649;48.798;9.798;2023-02-28T04:31:49;5.33;;;4.83;;
7215;SDS011;3649;48.798;9.798;2023-02-28T04:34:16;5.23;;;4.70;;
7215;SDS011;3649;48.798;9.798;2023-02-28T04:36:45;5.67;;;4.97;;
7215;SDS011;3649;48.798;9.798;2023-02-28T04:39:12;5.60;;;4.80;;
7215;SDS011;3649;48.798;9.798;2023-02-28T04:41:39;7.00;;;5.10;;
7215;SDS011;3649;48.798;9.798;2023-02-28T04:44:06;7.10;;;5.40;;
7215;SDS011;3649;48.798;9.798;2023-02-28T04:46:33;6.50;;;5.20;;
7215;SDS011;3649;48.798;9.798;2023-02-28T04:48:59;7.57;;;4.83;;
7215;SDS011;3649;48.798;9.798;2023-02-28T04:51:26;5.63;;;5.10;;
7215;SDS011;3649;48.798;9.798;2023-02-28T04:53:53;8.00;;;4.77;;
7215;SDS011;3649;48.798;9.798;2023-02-28T04:56:21;6.13;;;4.83;;
7215;SDS011;3649;48.798;9.798;2023-02-28T04:58:48;6.53;;;4.77;;
7215;SDS011;3649;48.798;9.798;2023-02-28T05:03:47;10.50;;;5.00;;
7215;SDS011;3649;48.798;9.798;2023-02-28T05:06:14;6.57;;;5.17;;
7215;SDS011;3649;48.798;9.798;2023-02-28T05:08:41;6.93;;;5.17;;
7215;SDS011;3649;48.798;9.798;2023-02-28T05:11:13;5.80;;;5.23;;
7215;SDS011;3649;48.798;9.798;2023-02-28T05:13:42;6.30;;;5.70;;
7215;SDS011;3649;48.798;9.798;2023-02-28T05:16:09;7.37;;;4.90;;
7215;SDS011;3649;48.798;9.798;2023-02-28T05:18:36;7.37;;;5.60;;
7215;SDS011;3649;48.798;9.798;2023-02-28T05:21:04;6.57;;;5.57;;
7215;SDS011;3649;48.798;9.798;2023-02-28T05:23:32;9.50;;;5.73;;
7215;SDS011;3649;48.798;9.798;2023-02-28T05:26:00;5.20;;;4.70;;
7215;SDS011;3649;48.798;9.798;2023-02-28T05:28:27;9.13;;;5.77;;
7215;SDS011;3649;48.798;9.798;2023-02-28T05:30:55;9.20;;;5.63;;
7215;SDS011;3649;48.798;9.798;2023-02-28T05:33:23;8.37;;;5.40;;
7215;SDS011;3649;48.798;9.798;2023-02-28T05:35:50;6.60;;;5.83;;
7215;SDS011;3649;48.798;9.798;2023-02-28T05:38:17;7.70;;;5.17;;
7215;SDS011;3649;48.798;9.798;2023-02-28T05:40:44;8.93;;;5.60;;
7215;SDS011;3649;48.798;9.798;2023-02-28T05:43:11;5.50;;;5.07;;
7215;SDS011;3649;48.798;9.798;2023-02-28T05:45:38;7.77;;;6.03;;
7215;SDS011;3649;48.798;9.798;2023-02-28T05:48:05;7.77;;;5.83;;
7215;SDS011;3649;48.798;9.798;2023-02-28T05:50:32;6.33;;;5.33;;
7215;SDS011;3649;48.798;9.798;2023-02-28T05:52:58;7.43;;;5.10;;
7215;SDS011;3649;48.798;9.798;2023-02-28T05:55:25;6.63;;;5.93;;
7215;SDS011;3649;48.798;9.798;2023-02-28T05:57:52;8.40;;;5.63;;
7215;SDS011;3649;48.798;9.798;2023-02-28T06:00:19;11.87;;;6.30;;
7215;SDS011;3649;48.798;9.798;2023-02-28T06:02:46;7.93;;;5.93;;
7215;SDS011;3649;48.798;9.798;2023-02-28T06:05:13;6.47;;;5.73;;
7215;SDS011;3649;48.798;9.798;2023-02-28T06:07:42;6.30;;;5.63;;
7215;SDS011;3649;48.798;9.798;2023-02-28T06:10:10;7.60;;;5.63;;
7215;SDS011;3649;48.798;9.798;2023-02-28T06:12:37;7.93;;;6.07;;
7215;SDS011;3649;48.798;9.798;2023-02-28T06:15:04;7.67;;;5.93;;
7215;SDS011;3649;48.798;9.798;2023-02-28T06:17:31;6.33;;;5.60;;
7215;SDS011;3649;48.798;9.798;2023-02-28T06:19:58;8.83;;;5.93;;
7215;SDS011;3649;48.798;9.798;2023-02-28T06:22:25;7.03;;;5.93;;
7215;SDS011;3649;48.798;9.798;2023-02-28T06:24:52;6.57;;;5.77;;
7215;SDS011;3649;48.798;9.798;2023-02-28T06:27:20;7.93;;;6.23;;
7215;SDS011;3649;48.798;9.798;2023-02-28T06:29:48;8.70;;;5.77;;
7215;SDS011;3649;48.798;9.798;2023-02-28T06:32:15;9.33;;;6.67;;
7215;SDS011;3649;48.798;9.798;2023-02-28T06:34:42;10.23;;;7.53;;
7215;SDS011;3649;48.798;9.798;2023-02-28T06:37:09;10.07;;;8.17;;
7215;SDS011;3649;48.798;9.798;2023-02-28T06:39:35;7.93;;;6.00;;
7215;SDS011;3649;48.798;9.798;2023-02-28T06:42:02;6.53;;;5.87;;
7215;SDS011;3649;48.798;9.798;2023-02-28T06:44:29;8.60;;;6.33;;
7215;SDS011;3649;48.798;9.798;2023-02-28T06:47:02;19.83;;;5.80;;
7215;SDS011;3649;48.798;9.798;2023-02-28T06:49:30;9.47;;;6.40;;
7215;SDS011;3649;48.798;9.798;2023-02-28T06:51:58;12.47;;;6.30;;
7215;SDS011;3649;48.798;9.798;2023-02-28T06:54:26;8.40;;;6.53;;
7215;SDS011;3649;48.798;9.798;2023-02-28T06:56:53;9.83;;;6.73;;
7215;SDS011;3649;48.798;9.798;2023-02-28T06:59:23;7.13;;;6.37;;
7215;SDS011;3649;48.798;9.798;2023-02-28T07:01:49;8.47;;;6.70;;
7215;SDS011;3649;48.798;9.798;2023-02-28T07:04:16;7.70;;;6.47;;
7215;SDS011;3649;48.798;9.798;2023-02-28T07:06:43;9.43;;;6.60;;
7215;SDS011;3649;48.798;9.798;2023-02-28T07:09:10;9.47;;;6.77;;
7215;SDS011;3649;48.798;9.798;2023-02-28T07:11:37;7.50;;;6.77;;
7215;SDS011;3649;48.798;9.798;2023-02-28T07:14:03;9.00;;;7.00;;
7215;SDS011;3649;48.798;9.798;2023-02-28T07:16:30;11.47;;;6.93;;
7215;SDS011;3649;48.798;9.798;2023-02-28T07:18:57;11.33;;;6.87;;
7215;SDS011;3649;48.798;9.798;2023-02-28T07:21:24;7.33;;;6.63;;
7215;SDS011;3649;48.798;9.798;2023-02-28T07:23:51;7.90;;;7.10;;
7215;SDS011;3649;48.798;9.798;2023-02-28T07:26:18;8.27;;;6.53;;
7215;SDS011;3649;48.798;9.798;2023-02-28T07:28:46;7.83;;;7.13;;
7215;SDS011;3649;48.798;9.798;2023-02-28T07:31:14;7.90;;;7.00;;
7215;SDS011;3649;48.798;9.798;2023-02-28T07:33:42;7.70;;;6.90;;
7215;SDS011;3649;48.798;9.798;2023-02-28T07:36:10;9.10;;;6.87;;
7215;SDS011;3649;48.798;9.798;2023-02-28T07:38:43;7.60;;;6.60;;
7215;SDS011;3649;48.798;9.798;2023-02-28T07:41:17;10.30;;;7.07;;
7215;SDS011;3649;48.798;9.798;2023-02-28T07:43:46;12.27;;;7.13;;
7215;SDS011;3649;48.798;9.798;2023-02-28T07:46:14;9.40;;;7.10;;
7215;SDS011;3649;48.798;9.798;2023-02-28T07:48:43;9.63;;;6.87;;
7215;SDS011;3649;48.798;9.798;2023-02-28T07:51:10;9.13;;;7.00;;
7215;SDS011;3649;48.798;9.798;2023-02-28T07:53:37;10.63;;;6.97;;
7215;SDS011;3649;48.798;9.798;2023-02-28T07:56:04;8.30;;;6.77;;
7215;SDS011;3649;48.798;9.798;2023-02-28T07:58:31;10.27;;;7.43;;
7215;SDS011;3649;48.798;9.798;2023-02-28T08:01:04;9.33;;;7.73;;
7215;SDS011;3649;48.798;9.798;2023-02-28T08:03:32;10.27;;;6.90;;
7215;SDS011;3649;48.798;9.798;2023-02-28T08:05:59;10.00;;;7.70;;
7215;SDS011;3649;48.798;9.798;2023-02-28T08:08:26;8.57;;;7.07;;
7215;SDS011;3649;48.798;9.798;2023-02-28T08:11:01;8.40;;;7.00;;
7215;SDS011;3649;48.798;9.798;2023-02-28T08:13:29;7.77;;;6.97;;
7215;SDS011;3649;48.798;9.798;2023-02-28T08:15:57;9.03;;;7.30;;
7215;SDS011;3649;48.798;9.798;2023-02-28T08:18:24;7.97;;;7.10;;
7215;SDS011;3649;48.798;9.798;2023-02-28T08:20:51;10.13;;;7.07;;
7215;SDS011;3649;48.798;9.798;2023-02-28T08:23:18;9.10;;;6.97;;
7215;SDS011;3649;48.798;9.798;2023-02-28T08:25:52;10.57;;;7.77;;
7215;SDS011;3649;48.798;9.798;2023-02-28T08:28:21;8.97;;;7.30;;
7215;SDS011;3649;48.798;9.798;2023-02-28T08:30:51;9.23;;;7.63;;
7215;SDS011;3649;48.798;9.798;2023-02-28T08:33:18;8.70;;;7.40;;
7215;SDS011;3649;48.798;9.798;2023-02-28T08:35:45;8.20;;;7.40;;
7215;SDS011;3649;48.798;9.798;2023-02-28T08:38:12;9.23;;;7.57;;
7215;SDS011;3649;48.798;9.798;2023-02-28T08:40:39;9.50;;;7.83;;
7215;SDS011;3649;48.798;9.798;2023-02-28T08:43:06;8.17;;;7.13;;
7215;SDS011;3649;48.798;9.798;2023-02-28T08:45:33;10.13;;;7.80;;
7215;SDS011;3649;48.798;9.798;2023-02-28T08:48:00;8.57;;;7.47;;
7215;SDS011;3649;48.798;9.798;2023-02-28T08:50:27;9.23;;;7.30;;
7215;SDS011;3649;48.798;9.798;2023-02-28T08:52:53;8.27;;;7.47;;
7215;SDS011;3649;48.798;9.798;2023-02-28T08:55:23;9.27;;;7.90;;
7215;SDS011;3649;48.798;9.798;2023-02-28T08:57:54;8.87;;;7.70;;
7215;SDS011;3649;48.798;9.798;2023-02-28T09:00:23;9.30;;;7.70;;
7215;SDS011;3649;48.798;9.798;2023-02-28T09:02:51;10.83;;;7.70;;
7215;SDS011;3649;48.798;9.798;2023-02-28T09:05:18;9.23;;;7.50;;
7215;SDS011;3649;48.798;9.798;2023-02-28T09:07:45;10.23;;;7.80;;
7215;SDS011;3649;48.798;9.798;2023-02-28T09:10:12;8.60;;;7.53;;
7215;SDS011;3649;48.798;9.798;2023-02-28T09:12:40;10.10;;;7.57;;
7215;SDS011;3649;48.798;9.798;2023-02-28T09:15:07;8.20;;;7.40;;
7215;SDS011;3649;48.798;9.798;2023-02-28T09:17:35;11.13;;;8.73;;
7215;SDS011;3649;48.798;9.798;2023-02-28T09:20:02;9.53;;;8.10;;
7215;SDS011;3649;48.798;9.798;2023-02-28T09:22:28;8.77;;;7.97;;
7215;SDS011;3649;48.798;9.798;2023-02-28T09:24:55;11.73;;;7.60;;
7215;SDS011;3649;48.798;9.798;2023-02-28T09:27:22;13.10;;;8.87;;
7215;SDS011;3649;48.798;9.798;2023-02-28T09:29:49;9.33;;;7.60;;
7215;SDS011;3649;48.798;9.798;2023-02-28T09:32:16;10.93;;;8.10;;
7215;SDS011;3649;48.798;9.798;2023-02-28T09:34:44;11.00;;;7.93;;
7215;SDS011;3649;48.798;9.798;2023-02-28T09:37:11;9.40;;;7.90;;
7215;SDS011;3649;48.798;9.798;2023-02-28T09:39:38;9.87;;;7.97;;
7215;SDS011;3649;48.798;9.798;2023-02-28T09:42:05;10.07;;;7.17;;
7215;SDS011;3649;48.798;9.798;2023-02-28T09:44:38;9.97;;;7.63;;
7215;SDS011;3649;48.798;9.798;2023-02-28T09:47:13;8.90;;;7.80;;
7215;SDS011;3649;48.798;9.798;2023-02-28T09:50:03;13.77;;;8.53;;
7215;SDS011;3649;48.798;9.798;2023-02-28T09:52:48;9.73;;;7.87;;
7215;SDS011;3649;48.798;9.798;2023-02-28T09:55:20;10.90;;;8.13;;
7215;SDS011;3649;48.798;9.798;2023-02-28T09:58:00;15.13;;;9.33;;
7215;SDS011;3649;48.798;9.798;2023-02-28T10:00:32;8.10;;;7.27;;
7215;SDS011;3649;48.798;9.798;2023-02-28T10:05:42;11.23;;;7.43;;
7215;SDS011;3649;48.798;9.798;2023-02-28T10:08:17;8.47;;;7.27;;
7215;SDS011;3649;48.798;9.798;2023-02-28T10:11:02;8.27;;;7.13;;
7215;SDS011;3649;48.798;9.798;2023-02-28T10:19:22;13.00;;;7.43;;
7215;SDS011;3649;48.798;9.798;2023-02-28T10:22:14;7.67;;;6.93;;
7215;SDS011;3649;48.798;9.798;2023-02-28T10:24:42;8.40;;;7.50;;
7215;SDS011;3649;48.798;9.798;2023-02-28T10:27:17;11.07;;;7.53;;
7215;SDS011;3649;48.798;9.798;2023-02-28T10:29:49;12.53;;;7.50;;
7215;SDS011;3649;48.798;9.798;2023-02-28T10:32:19;10.13;;;7.90;;
7215;SDS011;3649;48.798;9.798;2023-02-28T10:34:52;9.87;;;7.20;;
7215;SDS011;3649;48.798;9.798;2023-02-28T10:37:34;8.73;;;7.27;;
7215;SDS011;3649;48.798;9.798;2023-02-28T10:40:06;9.73;;;7.20;;
7215;SDS011;3649;48.798;9.798;2023-02-28T10:42:56;10.07;;;7.87;;
7215;SDS011;3649;48.798;9.798;2023-02-28T10:45:38;11.40;;;7.90;;
7215;SDS011;3649;48.798;9.798;2023-02-28T10:56:12;9.10;;;7.50;;
7215;SDS011;3649;48.798;9.798;2023-02-28T10:58:56;11.10;;;7.90;;
7215;SDS011;3649;48.798;9.798;2023-02-28T11:01:44;8.13;;;7.33;;
7215;SDS011;3649;48.798;9.798;2023-02-28T11:07:19;8.77;;;7.97;;
7215;SDS011;3649;48.798;9.798;2023-02-28T11:09:51;9.90;;;7.77;;
7215;SDS011;3649;48.798;9.798;2023-02-28T11:12:21;11.03;;;8.43;;
7215;SDS011;3649;48.798;9.798;2023-02-28T11:14:55;8.77;;;7.67;;
7215;SDS011;3649;48.798;9.798;2023-02-28T11:17:29;11.20;;;8.53;;
7215;SDS011;3649;48.798;9.798;2023-02-28T11:20:04;9.73;;;8.07;;
7215;SDS011;3649;48.798;9.798;2023-02-28T11:22:35;12.33;;;9.40;;
7215;SDS011;3649;48.798;9.798;2023-02-28T11:25:48;9.37;;;7.77;;
7215;SDS011;3649;48.798;9.798;2023-02-28T11:28:00;9.20;;;7.80;;
7215;SDS011;3649;48.798;9.798;2023-02-28T11:30:39;8.27;;;7.47;;
7215;SDS011;3649;48.798;9.798;2023-02-28T11:33:30;11.87;;;8.80;;
7215;SDS011;3649;48.798;9.798;2023-02-28T11:36:03;11.07;;;8.70;;
7215;SDS011;3649;48.798;9.798;2023-02-28T11:38:37;8.27;;;7.40;;
7215;SDS011;3649;48.798;9.798;2023-02-28T11:41:29;9.33;;;7.40;;
7215;SDS011;3649;48.798;9.798;2023-02-28T11:46:52;9.67;;;8.13;;
7215;SDS011;3649;48.798;9.798;2023-02-28T11:55:14;9.97;;;7.33;;
7215;SDS011;3649;48.798;9.798;2023-02-28T12:03:13;8.13;;;7.27;;
7215;SDS011;3649;48.798;9.798;2023-02-28T12:05:46;8.43;;;6.73;;
7215;SDS011;3649;48.798;9.798;2023-02-28T12:10:57;9.10;;;7.33;;
7215;SDS011;3649;48.798;9.798;2023-02-28T12:14:06;8.23;;;6.60;;
7215;SDS011;3649;48.798;9.798;2023-02-28T12:16:40;9.43;;;7.00;;
7215;SDS011;3649;48.798;9.798;2023-02-28T12:27:56;11.83;;;6.90;;
7215;SDS011;3649;48.798;9.798;2023-02-28T12:30:45;7.47;;;6.77;;
7215;SDS011;3649;48.798;9.798;2023-02-28T12:33:20;9.60;;;7.83;;
7215;SDS011;3649;48.798;9.798;2023-02-28T12:35:56;8.20;;;7.10;;
7215;SDS011;3649;48.798;9.798;2023-02-28T12:38:29;11.13;;;7.47;;
7215;SDS011;3649;48.798;9.798;2023-02-28T12:41:03;11.23;;;7.47;;
7215;SDS011;3649;48.798;9.798;2023-02-28T12:43:43;10.93;;;8.47;;
7215;SDS011;3649;48.798;9.798;2023-02-28T12:46:18;7.17;;;6.40;;
7215;SDS011;3649;48.798;9.798;2023-02-28T12:48:56;7.93;;;7.13;;
7215;SDS011;3649;48.798;9.798;2023-02-28T12:51:25;8.13;;;6.93;;
7215;SDS011;3649;48.798;9.798;2023-02-28T12:56:47;8.07;;;7.20;;
7215;SDS011;3649;48.798;9.798;2023-02-28T13:05:45;9.23;;;7.37;;
7215;SDS011;3649;48.798;9.798;2023-02-28T13:11:32;9.83;;;7.00;;
7215;SDS011;3649;48.798;9.798;2023-02-28T13:14:13;8.27;;;6.80;;
7215;SDS011;3649;48.798;9.798;2023-02-28T13:19:36;6.77;;;6.07;;
7215;SDS011;3649;48.798;9.798;2023-02-28T13:22:04;8.63;;;7.07;;
7215;SDS011;3649;48.798;9.798;2023-02-28T13:24:50;9.27;;;6.73;;
7215;SDS011;3649;48.798;9.798;2023-02-28T13:27:23;9.17;;;7.77;;
7215;SDS011;3649;48.798;9.798;2023-02-28T13:29:58;11.63;;;7.97;;
7215;SDS011;3649;48.798;9.798;2023-02-28T13:40:07;8.67;;;7.77;;
7215;SDS011;3649;48.798;9.798;2023-02-28T13:43:03;10.67;;;6.97;;
7215;SDS011;3649;48.798;9.798;2023-02-28T13:45:35;8.37;;;7.00;;
7215;SDS011;3649;48.798;9.798;2023-02-28T13:48:20;9.40;;;7.27;;
7215;SDS011;3649;48.798;9.798;2023-02-28T13:50:52;9.60;;;7.97;;
7215;SDS011;3649;48.798;9.798;2023-02-28T13:53:25;11.03;;;7.80;;
7215;SDS011;3649;48.798;9.798;2023-02-28T14:06:30;8.67;;;7.10;;
7215;SDS011;3649;48.798;9.798;2023-02-28T14:09:45;8.93;;;7.83;;
7215;SDS011;3649;48.798;9.798;2023-02-28T14:11:53;12.63;;;7.83;;
7215;SDS011;3649;48.798;9.798;2023-02-28T14:17:03;11.30;;;8.87;;
7215;SDS011;3649;48.798;9.798;2023-02-28T14:19:32;9.90;;;7.57;;
7215;SDS011;3649;48.798;9.798;2023-02-28T14:27:16;8.20;;;6.57;;
7215;SDS011;3649;48.798;9.798;2023-02-28T14:37:51;8.87;;;7.80;;
7215;SDS011;3649;48.798;9.798;2023-02-28T14:40:26;10.20;;;7.97;;
7215;SDS011;3649;48.798;9.798;2023-02-28T14:42:57;11.20;;;8.43;;
7215;SDS011;3649;48.798;9.798;2023-02-28T14:45:31;9.73;;;8.00;;
7215;SDS011;3649;48.798;9.798;2023-02-28T14:48:02;10.93;;;8.00;;
7215;SDS011;3649;48.798;9.798;2023-02-28T14:50:35;9.20;;;8.07;;
7215;SDS011;3649;48.798;9.798;2023-02-28T14:53:03;10.90;;;8.67;;
7215;SDS011;3649;48.798;9.798;2023-02-28T14:55:43;9.03;;;7.83;;
7215;SDS011;3649;48.798;9.798;2023-02-28T14:58:22;12.67;;;8.20;;
7215;SDS011;3649;48.798;9.798;2023-02-28T15:00:58;10.13;;;7.67;;
7215;SDS011;3649;48.798;9.798;2023-02-28T15:03:35;10.47;;;7.83;;
7215;SDS011;3649;48.798;9.798;2023-02-28T15:06:05;13.17;;;7.87;;
7215;SDS011;3649;48.798;9.798;2023-02-28T15:08:43;10.33;;;8.17;;
7215;SDS011;3649;48.798;9.798;2023-02-28T15:11:18;12.20;;;8.97;;
7215;SDS011;3649;48.798;9.798;2023-02-28T15:13:52;11.20;;;8.47;;
7215;SDS011;3649;48.798;9.798;2023-02-28T15:16:39;10.57;;;7.93;;
7215;SDS011;3649;48.798;9.798;2023-02-28T15:19:42;8.63;;;7.77;;
7215;SDS011;3649;48.798;9.798;2023-02-28T15:22:05;9.30;;;7.33;;
7215;SDS011;3649;48.798;9.798;2023-02-28T15:24:45;10.27;;;9.27;;
7215;SDS011;3649;48.798;9.798;2023-02-28T15:27:20;10.27;;;7.53;;
7215;SDS011;3649;48.798;9.798;2023-02-28T15:29:59;15.67;;;9.77;;
7215;SDS011;3649;48.798;9.798;2023-02-28T15:32:34;15.20;;;8.50;;
7215;SDS011;3649;48.798;9.798;2023-02-28T15:37:53;9.50;;;8.30;;
7215;SDS011;3649;48.798;9.798;2023-02-28T15:40:29;8.20;;;7.40;;
7215;SDS011;3649;48.798;9.798;2023-02-28T15:43:44;9.40;;;8.50;;
7215;SDS011;3649;48.798;9.798;2023-02-28T15:53:35;10.23;;;8.47;;
7215;SDS011;3649;48.798;9.798;2023-02-28T15:56:23;9.80;;;8.17;;
7215;SDS011;3649;48.798;9.798;2023-02-28T15:59:01;8.73;;;7.80;;
7215;SDS011;3649;48.798;9.798;2023-02-28T16:01:32;8.47;;;7.57;;
7215;SDS011;3649;48.798;9.798;2023-02-28T16:04:11;8.43;;;7.07;;
7215;SDS011;3649;48.798;9.798;2023-02-28T16:06:55;9.10;;;7.90;;
7215;SDS011;3649;48.798;9.798;2023-02-28T16:09:31;9.30;;;7.97;;
7215;SDS011;3649;48.798;9.798;2023-02-28T16:12:00;11.03;;;7.93;;
7215;SDS011;3649;48.798;9.798;2023-02-28T16:14:29;11.30;;;8.57;;
7215;SDS011;3649;48.798;9.798;2023-02-28T16:17:01;9.17;;;8.27;;
7215;SDS011;3649;48.798;9.798;2023-02-28T16:19:34;8.87;;;7.97;;
7215;SDS011;3649;48.798;9.798;2023-02-28T16:22:01;8.53;;;7.23;;
7215;SDS011;3649;48.798;9.798;2023-02-28T16:24:28;11.57;;;8.03;;
7215;SDS011;3649;48.798;9.798;2023-02-28T16:26:55;9.67;;;8.67;;
7215;SDS011;3649;48.798;9.798;2023-02-28T16:29:24;11.93;;;8.37;;
7215;SDS011;3649;48.798;9.798;2023-02-28T16:31:57;14.67;;;8.50;;
7215;SDS011;3649;48.798;9.798;2023-02-28T16:34:25;10.20;;;7.80;;
7215;SDS011;3649;48.798;9.798;2023-02-28T16:36:52;9.93;;;8.80;;
7215;SDS011;3649;48.798;9.798;2023-02-28T16:39:19;10.60;;;8.90;;
7215;SDS011;3649;48.798;9.798;2023-02-28T16:41:47;9.90;;;8.13;;
7215;SDS011;3649;48.798;9.798;2023-02-28T16:46:56;10.37;;;8.30;;
7215;SDS011;3649;48.798;9.798;2023-02-28T16:49:23;11.83;;;8.97;;
7215;SDS011;3649;48.798;9.798;2023-02-28T16:51:51;12.50;;;9.97;;
7215;SDS011;3649;48.798;9.798;2023-02-28T16:54:18;9.27;;;8.30;;
7215;SDS011;3649;48.798;9.798;2023-02-28T16:56:46;11.97;;;8.63;;
7215;SDS011;3649;48.798;9.798;2023-02-28T16:59:15;10.43;;;9.30;;
7215;SDS011;3649;48.798;9.798;2023-02-28T17:01:51;9.60;;;8.57;;
7215;SDS011;3649;48.798;9.798;2023-02-28T17:04:19;10.93;;;8.93;;
7215;SDS011;3649;48.798;9.798;2023-02-28T17:06:47;16.33;;;9.50;;
7215;SDS011;3649;48.798;9.798;2023-02-28T17:09:18;12.90;;;10.60;;
7215;SDS011;3649;48.798;9.798;2023-02-28T17:11:56;12.03;;;10.73;;
7215;SDS011;3649;48.798;9.798;2023-02-28T17:14:23;13.47;;;9.83;;
7215;SDS011;3649;48.798;9.798;2023-02-28T17:16:50;15.20;;;9.40;;
7215;SDS011;3649;48.798;9.798;2023-02-28T17:19:17;14.27;;;9.40;;
7215;SDS011;3649;48.798;9.798;2023-02-28T17:21:44;10.37;;;9.20;;
7215;SDS011;3649;48.798;9.798;2023-02-28T17:24:11;15.53;;;11.43;;
7215;SDS011;3649;48.798;9.798;2023-02-28T17:26:44;18.70;;;11.50;;
7215;SDS011;3649;48.798;9.798;2023-02-28T17:29:20;14.17;;;10.90;;
7215;SDS011;3649;48.798;9.798;2023-02-28T17:31:48;11.90;;;10.13;;
7215;SDS011;3649;48.798;9.798;2023-02-28T17:34:15;14.40;;;10.70;;
7215;SDS011;3649;48.798;9.798;2023-02-28T17:36:45;11.83;;;9.87;;
7215;SDS011;3649;48.798;9.798;2023-02-28T17:39:13;13.43;;;10.10;;
7215;SDS011;3649;48.798;9.798;2023-02-28T17:41:41;12.27;;;10.50;;
7215;SDS011;3649;48.798;9.798;2023-02-28T17:44:08;17.23;;;10.77;;
7215;SDS011;3649;48.798;9.798;2023-02-28T17:46:36;12.43;;;9.90;;
7215;SDS011;3649;48.798;9.798;2023-02-28T17:49:03;13.00;;;11.00;;
7215;SDS011;3649;48.798;9.798;2023-02-28T17:51:31;15.13;;;11.27;;
7215;SDS011;3649;48.798;9.798;2023-02-28T17:53:58;17.80;;;10.87;;
7215;SDS011;3649;48.798;9.798;2023-02-28T17:56:26;15.27;;;11.30;;
7215;SDS011;3649;48.798;9.798;2023-02-28T17:58:54;12.60;;;10.77;;
7215;SDS011;3649;48.798;9.798;2023-02-28T18:01:22;17.10;;;11.13;;